createdAt,value
2023-04-07T00:00:05.989Z,78.49
2023-04-07T00:05:07.594Z,78.40
2023-04-07T00:10:09.490Z,78.31
2023-04-07T00:15:11.016Z,78.45
2023-04-07T00:20:12.634Z,78.96
2023-04-07T00:25:14.205Z,79.26
2023-04-07T00:30:15.708Z,79.20
2023-04-07T00:35:17.905Z,79.72
2023-04-07T00:40:19.339Z,78.94
2023-04-07T00:45:20.730Z,78.41
2023-04-07T00:50:22.111Z,79.47
2023-04-07T00:55:24.405Z,79.40
2023-04-07T01:00:27.971Z,78.52
2023-04-07T01:05:42.583Z,80.09
2023-04-07T01:11:00.797Z,79.77
2023-04-07T01:16:06.086Z,78.75
2023-04-07T01:21:13.975Z,78.85
2023-04-07T01:26:32.143Z,79.43
2023-04-07T01:31:34.963Z,79.56
2023-04-07T01:36:36.829Z,79.93
2023-04-07T01:41:39.978Z,79.70
2023-04-07T01:46:41.336Z,79.75
2023-04-07T01:51:43.378Z,79.27
2023-04-07T01:56:45.652Z,79.92
2023-04-07T02:01:48.327Z,80.69
2023-04-07T02:06:54.791Z,80.39
2023-04-07T02:11:59.867Z,81.06
2023-04-07T02:17:02.218Z,80.96
2023-04-07T02:22:05.470Z,81.06
2023-04-07T02:27:06.864Z,81.60
2023-04-07T02:32:08.403Z,82.33
2023-04-07T02:37:09.869Z,80.89
2023-04-07T02:42:11.262Z,81.80
2023-04-07T02:47:12.609Z,81.58
2023-04-07T02:52:14.013Z,82.42
2023-04-07T02:57:15.561Z,81.73
2023-04-07T03:02:17.245Z,82.32
2023-04-07T03:07:19.006Z,82.15
2023-04-07T03:12:20.668Z,82.99
2023-04-07T03:17:22.068Z,83.26
2023-04-07T03:22:23.379Z,82.80
2023-04-07T03:27:24.680Z,83.13
2023-04-07T03:32:26.152Z,83.01
2023-04-07T03:37:27.551Z,83.02
2023-04-07T03:42:28.914Z,82.81
2023-04-07T03:47:30.553Z,83.42
2023-04-07T03:52:32.021Z,83.49
2023-04-07T03:57:33.488Z,83.40
2023-04-07T04:02:34.960Z,84.08
2023-04-07T04:07:36.414Z,84.01
2023-04-07T04:12:37.806Z,84.67
2023-04-07T04:17:39.194Z,84.55
2023-04-07T04:22:40.554Z,84.30
2023-04-07T04:27:41.979Z,83.87
2023-04-07T04:32:43.644Z,83.64
2023-04-07T04:37:45.299Z,84.15
2023-04-07T04:42:46.723Z,83.90
2023-04-07T04:47:48.140Z,83.13
2023-04-07T04:52:49.609Z,83.18
2023-04-07T04:57:51.023Z,82.87
2023-04-07T05:02:52.445Z,84.39
2023-04-07T05:07:54.039Z,84.60
2023-04-07T05:12:56.118Z,84.25
2023-04-07T05:17:57.761Z,84.63
2023-04-07T05:22:59.192Z,84.47
2023-04-07T05:28:00.590Z,84.70
2023-04-07T05:33:01.978Z,84.65
2023-04-07T05:38:03.489Z,84.96
2023-04-07T05:43:04.875Z,84.52
2023-04-07T05:48:06.617Z,84.16
2023-04-07T05:53:07.949Z,84.67
2023-04-07T05:58:09.340Z,84.58
2023-04-07T06:03:10.973Z,84.14
2023-04-07T06:08:12.459Z,84.02
2023-04-07T06:13:13.900Z,83.84
2023-04-07T06:18:15.588Z,83.69
2023-04-07T06:23:16.962Z,84.04
2023-04-07T06:28:18.647Z,84.54
2023-04-07T06:33:23.868Z,84.46
2023-04-07T06:38:25.644Z,84.52
2023-04-07T06:43:27.058Z,84.79
2023-04-07T06:48:28.450Z,84.95
2023-04-07T06:53:29.893Z,84.95
2023-04-07T06:58:31.389Z,84.66
2023-04-07T07:03:33.566Z,85.27
2023-04-07T07:08:35.387Z,85.74
2023-04-07T07:13:37.352Z,86.07
2023-04-07T07:18:38.777Z,85.55
2023-04-07T07:23:40.302Z,85.89
2023-04-07T07:28:41.783Z,85.67
2023-04-07T07:33:45.932Z,85.82
2023-04-07T07:38:50.557Z,85.05
2023-04-07T07:43:52.017Z,84.75
2023-04-07T07:48:53.786Z,84.88
2023-04-07T07:53:55.571Z,85.28
2023-04-07T07:58:58.274Z,84.86
2023-04-07T08:03:59.939Z,85.01
2023-04-07T08:09:01.344Z,85.64
2023-04-07T08:14:02.750Z,85.08
2023-04-07T08:19:04.068Z,84.71
2023-04-07T08:24:06.026Z,84.74
2023-04-07T08:29:07.334Z,84.62
2023-04-07T08:34:08.649Z,85.77
2023-04-07T08:39:10.041Z,85.54
2023-04-07T08:44:11.476Z,85.25
2023-04-07T08:49:15.454Z,84.71
2023-04-07T08:54:22.072Z,84.46
2023-04-07T08:59:28.433Z,85.19
2023-04-07T09:04:29.869Z,84.88
2023-04-07T09:09:31.170Z,85.61
2023-04-07T09:14:32.775Z,85.03
2023-04-07T09:19:34.284Z,84.68
2023-04-07T09:24:35.605Z,84.67
2023-04-07T09:29:37.657Z,84.37
2023-04-07T09:34:41.545Z,85.35
2023-04-07T09:39:51.903Z,85.25
2023-04-07T09:44:53.317Z,84.26
2023-04-07T09:49:56.250Z,84.80
2023-04-07T09:54:58.022Z,84.48
2023-04-07T09:59:59.455Z,84.12
2023-04-07T10:05:01.174Z,84.33
2023-04-07T10:10:07.949Z,84.46
2023-04-07T10:15:13.552Z,85.18
2023-04-07T10:20:17.474Z,85.80
2023-04-07T10:25:22.710Z,86.02
2023-04-07T10:30:27.950Z,85.86
2023-04-07T10:36:08.527Z,87.00
2023-04-07T10:41:36.359Z,88.15
2023-04-07T10:46:51.805Z,87.37
2023-04-07T10:52:11.255Z,88.10
2023-04-07T10:57:14.593Z,87.99
2023-04-07T11:02:25.385Z,86.70
2023-04-07T11:07:47.207Z,86.91
2023-04-07T11:12:59.689Z,87.31
2023-04-07T11:18:10.514Z,88.03
2023-04-07T11:23:12.173Z,87.32
2023-04-07T11:28:14.451Z,85.36
2023-04-07T11:33:20.521Z,86.58
2023-04-07T11:38:23.904Z,86.62
2023-04-07T11:43:27.433Z,86.62
2023-04-07T11:48:30.478Z,86.59
2023-04-07T11:53:39.934Z,86.12
2023-04-07T11:58:47.755Z,87.18
2023-04-07T12:04:01.872Z,86.94
2023-04-07T12:09:05.795Z,85.69
2023-04-07T12:14:08.825Z,84.81
2023-04-07T12:19:10.299Z,84.52
2023-04-07T12:24:11.826Z,84.90
2023-04-07T12:29:13.676Z,84.76
2023-04-07T12:34:14.990Z,84.71
2023-04-07T12:39:16.854Z,84.98
2023-04-07T12:44:18.442Z,83.46
2023-04-07T12:49:19.780Z,80.91
2023-04-07T12:54:21.283Z,81.34
2023-04-07T12:59:24.548Z,79.20
2023-04-07T13:04:26.962Z,78.41
2023-04-07T13:09:28.511Z,78.01
2023-04-07T13:14:30.302Z,76.47
2023-04-07T13:19:31.802Z,74.02
2023-04-07T13:24:33.358Z,75.29
2023-04-07T13:29:34.729Z,76.71
2023-04-07T13:34:37.492Z,76.67
2023-04-07T13:39:38.826Z,75.23
2023-04-07T13:44:40.854Z,74.58
2023-04-07T13:49:42.211Z,73.61
2023-04-07T13:54:44.065Z,69.88
2023-04-07T13:59:45.912Z,69.49
2023-04-07T14:04:47.306Z,69.71
2023-04-07T14:09:49.068Z,69.43
2023-04-07T14:14:52.247Z,69.40
2023-04-07T14:19:54.311Z,71.60
2023-04-07T14:24:56.153Z,73.10
2023-04-07T14:29:59.398Z,72.14
2023-04-07T14:35:01.106Z,70.21
2023-04-07T14:40:03.603Z,69.32
2023-04-07T14:45:05.390Z,68.67
2023-04-07T14:50:07.329Z,68.10
2023-04-07T14:55:08.857Z,65.71
2023-04-07T15:00:10.730Z,66.84
2023-04-07T15:05:12.218Z,66.22
2023-04-07T15:10:13.591Z,65.58
2023-04-07T15:15:15.744Z,63.93
2023-04-07T15:20:17.147Z,64.69
2023-04-07T15:25:18.570Z,63.71
2023-04-07T15:30:20.164Z,65.13
2023-04-07T15:35:21.472Z,64.53
2023-04-07T15:40:23.039Z,62.78
2023-04-07T15:45:24.423Z,63.23
2023-04-07T15:50:27.163Z,62.74
2023-04-07T15:55:28.546Z,63.21
2023-04-07T16:00:33.371Z,63.49
2023-04-07T16:05:35.243Z,65.42
2023-04-07T16:10:36.640Z,66.59
2023-04-07T16:15:41.223Z,67.30
2023-04-07T16:20:43.251Z,69.08
2023-04-07T16:25:44.675Z,69.44
2023-04-07T16:30:46.051Z,68.35
2023-04-07T16:35:47.447Z,68.14
2023-04-07T16:41:02.850Z,67.92
2023-04-07T16:46:06.083Z,68.11
2023-04-07T16:51:07.649Z,68.62
2023-04-07T16:56:19.567Z,68.86
2023-04-07T17:01:21.262Z,68.48
2023-04-07T17:06:23.310Z,69.29
2023-04-07T17:11:24.621Z,68.77
2023-04-07T17:16:26.175Z,68.85
2023-04-07T17:21:27.722Z,68.44
2023-04-07T17:26:29.180Z,68.99
2023-04-07T17:31:31.840Z,68.90
2023-04-07T17:36:33.746Z,69.30
2023-04-07T17:41:35.388Z,69.63
2023-04-07T17:46:36.788Z,70.10
2023-04-07T17:51:38.173Z,70.75
2023-04-07T17:56:39.865Z,70.67
2023-04-07T18:01:41.274Z,71.25
2023-04-07T18:06:42.724Z,71.20
2023-04-07T18:11:44.108Z,71.39
2023-04-07T18:16:45.515Z,71.75
2023-04-07T18:21:47.137Z,72.19
2023-04-07T18:26:48.497Z,72.43
2023-04-07T18:31:49.975Z,72.80
2023-04-07T18:36:51.704Z,73.67
2023-04-07T18:41:53.139Z,73.67
2023-04-07T18:46:54.578Z,74.20
2023-04-07T18:51:55.985Z,74.32
2023-04-07T18:56:57.919Z,73.89
2023-04-07T19:01:59.409Z,74.35
2023-04-07T19:07:00.886Z,73.57
2023-04-07T19:12:02.383Z,72.76
2023-04-07T19:17:03.807Z,71.96
2023-04-07T19:22:05.151Z,72.36
2023-04-07T19:27:07.158Z,71.87
2023-04-07T19:32:08.899Z,72.33
2023-04-07T19:37:10.279Z,72.24
2023-04-07T19:42:11.744Z,71.72
2023-04-07T19:47:13.247Z,72.06
2023-04-07T19:52:14.591Z,72.14
2023-04-07T19:57:16.393Z,71.97
2023-04-07T20:02:18.017Z,71.99
2023-04-07T20:07:19.481Z,71.99
2023-04-07T20:12:21.025Z,72.06
2023-04-07T20:17:23.499Z,72.37
2023-04-07T20:22:24.882Z,72.42
2023-04-07T20:27:27.101Z,72.28
2023-04-07T20:32:28.744Z,72.44
2023-04-07T20:37:30.202Z,72.20
2023-04-07T20:42:31.653Z,72.24
2023-04-07T20:47:35.825Z,72.52
2023-04-07T20:52:40.049Z,72.20
2023-04-07T20:57:41.817Z,72.66
2023-04-07T21:02:43.336Z,72.83
2023-04-07T21:07:44.818Z,73.48
2023-04-07T21:12:46.237Z,73.68
2023-04-07T21:17:47.675Z,73.80
2023-04-07T21:22:49.010Z,74.46
2023-04-07T21:27:50.613Z,74.35
2023-04-07T21:32:52.991Z,74.24
2023-04-07T21:37:55.081Z,74.59
2023-04-07T21:42:57.526Z,73.95
2023-04-07T21:47:59.020Z,74.60
2023-04-07T21:53:00.553Z,74.87
2023-04-07T21:58:01.852Z,75.10
2023-04-07T22:03:03.683Z,74.91
2023-04-07T22:08:05.277Z,75.60
2023-04-07T22:13:06.601Z,75.45
2023-04-07T22:18:07.925Z,75.13
2023-04-07T22:23:09.287Z,75.24
2023-04-07T22:28:10.870Z,75.21
2023-04-07T22:33:12.220Z,75.55
2023-04-07T22:38:13.653Z,75.23
2023-04-07T22:43:15.427Z,75.55
2023-04-07T22:48:17.477Z,75.57
2023-04-07T22:53:18.776Z,75.47
2023-04-07T22:58:20.210Z,75.46
2023-04-07T23:03:21.719Z,75.16
2023-04-07T23:08:23.196Z,75.71
2023-04-07T23:13:24.614Z,74.86
2023-04-07T23:18:25.934Z,75.77
2023-04-07T23:23:27.602Z,75.67
2023-04-07T23:28:29.012Z,75.58
2023-04-07T23:33:31.644Z,74.93
2023-04-07T23:38:33.107Z,75.24
2023-04-07T23:43:35.122Z,74.76
2023-04-07T23:48:36.695Z,74.23
2023-04-07T23:53:38.131Z,74.34
2023-04-07T23:58:39.582Z,74.43
